sensor_id;sensor_type;location;lat;lon;timestamp;P1;durP1;ratioP1;P2;durP2;ratioP2
75417;SDS011;63997;52.112;5.420;2023-02-15T00:01:56;23.48;;;11.40;;
75417;SDS011;63997;52.112;5.420;2023-02-15T00:04:24;23.60;;;10.67;;
75417;SDS011;63997;52.112;5.420;2023-02-15T00:07:11;22.33;;;9.82;;
75417;SDS011;63997;52.112;5.420;2023-02-15T00:09:39;23.23;;;10.88;;
75417;SDS011;63997;52.112;5.420;2023-02-15T00:12:05;27.42;;;13.60;;
75417;SDS011;63997;52.112;5.420;2023-02-15T00:14:32;24.70;;;12.32;;
75417;SDS011;63997;52.112;5.420;2023-02-15T00:16:58;22.53;;;10.93;;
75417;SDS011;63997;52.112;5.420;2023-02-15T00:19:25;14.93;;;8.50;;
75417;SDS011;63997;52.112;5.420;2023-02-15T00:21:52;22.23;;;9.25;;
75417;SDS011;63997;52.112;5.420;2023-02-15T00:24:19;18.30;;;8.48;;
75417;SDS011;63997;52.112;5.420;2023-02-15T00:26:47;20.52;;;8.63;;
75417;SDS011;63997;52.112;5.420;2023-02-15T00:29:15;15.80;;;8.77;;
75417;SDS011;63997;52.112;5.420;2023-02-15T00:31:42;16.38;;;8.27;;
75417;SDS011;63997;52.112;5.420;2023-02-15T00:36:40;12.82;;;7.22;;
75417;SDS011;63997;52.112;5.420;2023-02-15T00:39:06;23.90;;;9.35;;
75417;SDS011;63997;52.112;5.420;2023-02-15T00:41:33;20.83;;;8.50;;
75417;SDS011;63997;52.112;5.420;2023-02-15T00:44:00;16.67;;;9.07;;
75417;SDS011;63997;52.112;5.420;2023-02-15T00:46:26;19.80;;;9.38;;
75417;SDS011;63997;52.112;5.420;2023-02-15T00:48:53;20.10;;;9.32;;
75417;SDS011;63997;52.112;5.420;2023-02-15T00:51:19;20.20;;;10.10;;
75417;SDS011;63997;52.112;5.420;2023-02-15T00:53:48;18.87;;;9.83;;
75417;SDS011;63997;52.112;5.420;2023-02-15T00:56:15;17.70;;;8.65;;
75417;SDS011;63997;52.112;5.420;2023-02-15T00:58:41;21.63;;;9.85;;
75417;SDS011;63997;52.112;5.420;2023-02-15T01:01:09;19.77;;;9.75;;
75417;SDS011;63997;52.112;5.420;2023-02-15T01:03:38;22.92;;;10.50;;
75417;SDS011;63997;52.112;5.420;2023-02-15T01:06:05;20.13;;;9.00;;
75417;SDS011;63997;52.112;5.420;2023-02-15T01:08:32;18.83;;;9.55;;
75417;SDS011;63997;52.112;5.420;2023-02-15T01:11:03;23.38;;;9.63;;
75417;SDS011;63997;52.112;5.420;2023-02-15T01:13:31;17.08;;;10.27;;
75417;SDS011;63997;52.112;5.420;2023-02-15T01:15:57;20.17;;;10.35;;
75417;SDS011;63997;52.112;5.420;2023-02-15T01:18:24;19.30;;;10.23;;
75417;SDS011;63997;52.112;5.420;2023-02-15T01:20:50;23.20;;;11.93;;
75417;SDS011;63997;52.112;5.420;2023-02-15T01:23:17;20.95;;;10.90;;
75417;SDS011;63997;52.112;5.420;2023-02-15T01:25:43;22.85;;;11.70;;
75417;SDS011;63997;52.112;5.420;2023-02-15T01:28:10;24.25;;;11.50;;
75417;SDS011;63997;52.112;5.420;2023-02-15T01:30:36;19.87;;;10.70;;
75417;SDS011;63997;52.112;5.420;2023-02-15T01:33:03;20.70;;;11.30;;
75417;SDS011;63997;52.112;5.420;2023-02-15T01:35:29;23.27;;;11.80;;
75417;SDS011;63997;52.112;5.420;2023-02-15T01:37:56;21.45;;;11.02;;
75417;SDS011;63997;52.112;5.420;2023-02-15T01:40:23;21.50;;;10.73;;
75417;SDS011;63997;52.112;5.420;2023-02-15T01:42:54;21.97;;;10.10;;
75417;SDS011;63997;52.112;5.420;2023-02-15T01:50:29;20.13;;;10.27;;
75417;SDS011;63997;52.112;5.420;2023-02-15T01:55:39;17.83;;;10.50;;
75417;SDS011;63997;52.112;5.420;2023-02-15T01:58:10;24.45;;;11.98;;
75417;SDS011;63997;52.112;5.420;2023-02-15T02:00:37;25.73;;;10.07;;
75417;SDS011;63997;52.112;5.420;2023-02-15T02:03:18;17.10;;;8.77;;
75417;SDS011;63997;52.112;5.420;2023-02-15T02:05:50;20.52;;;10.32;;
75417;SDS011;63997;52.112;5.420;2023-02-15T02:08:16;17.40;;;9.43;;
75417;SDS011;63997;52.112;5.420;2023-02-15T02:10:43;17.88;;;10.52;;
75417;SDS011;63997;52.112;5.420;2023-02-15T02:13:09;20.60;;;9.80;;
75417;SDS011;63997;52.112;5.420;2023-02-15T02:15:47;17.38;;;8.27;;
75417;SDS011;63997;52.112;5.420;2023-02-15T02:18:32;16.17;;;8.55;;
75417;SDS011;63997;52.112;5.420;2023-02-15T02:23:58;16.55;;;8.45;;
75417;SDS011;63997;52.112;5.420;2023-02-15T02:29:22;22.60;;;10.15;;
75417;SDS011;63997;52.112;5.420;2023-02-15T02:43:52;18.77;;;9.13;;
75417;SDS011;63997;52.112;5.420;2023-02-15T02:46:33;18.67;;;9.23;;
75417;SDS011;63997;52.112;5.420;2023-02-15T02:49:07;18.33;;;9.70;;
75417;SDS011;63997;52.112;5.420;2023-02-15T02:51:34;24.50;;;11.63;;
75417;SDS011;63997;52.112;5.420;2023-02-15T02:54:00;20.70;;;10.20;;
75417;SDS011;63997;52.112;5.420;2023-02-15T02:56:41;20.00;;;9.57;;
75417;SDS011;63997;52.112;5.420;2023-02-15T02:59:16;18.58;;;9.75;;
75417;SDS011;63997;52.112;5.420;2023-02-15T03:01:51;22.30;;;9.60;;
75417;SDS011;63997;52.112;5.420;2023-02-15T03:04:24;18.25;;;8.35;;
75417;SDS011;63997;52.112;5.420;2023-02-15T03:06:58;18.80;;;9.95;;
75417;SDS011;63997;52.112;5.420;2023-02-15T03:09:29;25.02;;;10.30;;
75417;SDS011;63997;52.112;5.420;2023-02-15T03:12:08;20.17;;;9.88;;
75417;SDS011;63997;52.112;5.420;2023-02-15T03:14:37;21.03;;;10.07;;
75417;SDS011;63997;52.112;5.420;2023-02-15T03:17:05;19.52;;;10.48;;
75417;SDS011;63997;52.112;5.420;2023-02-15T03:19:34;25.92;;;11.27;;
75417;SDS011;63997;52.112;5.420;2023-02-15T03:22:36;17.88;;;10.80;;
75417;SDS011;63997;52.112;5.420;2023-02-15T03:25:02;22.88;;;11.82;;
75417;SDS011;63997;52.112;5.420;2023-02-15T03:27:43;21.93;;;11.33;;
75417;SDS011;63997;52.112;5.420;2023-02-15T03:30:13;20.17;;;9.98;;
75417;SDS011;63997;52.112;5.420;2023-02-15T03:32:44;20.15;;;11.45;;
75417;SDS011;63997;52.112;5.420;2023-02-15T03:35:13;24.67;;;12.20;;
75417;SDS011;63997;52.112;5.420;2023-02-15T03:45:45;22.45;;;11.40;;
75417;SDS011;63997;52.112;5.420;2023-02-15T03:48:39;20.63;;;10.52;;
75417;SDS011;63997;52.112;5.420;2023-02-15T03:51:10;20.02;;;10.68;;
75417;SDS011;63997;52.112;5.420;2023-02-15T03:54:01;23.77;;;11.13;;
75417;SDS011;63997;52.112;5.420;2023-02-15T03:56:30;20.88;;;9.07;;
75417;SDS011;63997;52.112;5.420;2023-02-15T03:58:59;27.40;;;10.75;;
75417;SDS011;63997;52.112;5.420;2023-02-15T04:01:55;20.65;;;10.30;;
75417;SDS011;63997;52.112;5.420;2023-02-15T04:04:38;22.13;;;10.35;;
75417;SDS011;63997;52.112;5.420;2023-02-15T04:07:08;22.50;;;10.43;;
75417;SDS011;63997;52.112;5.420;2023-02-15T04:09:35;26.50;;;11.52;;
75417;SDS011;63997;52.112;5.420;2023-02-15T04:12:20;25.80;;;11.52;;
75417;SDS011;63997;52.112;5.420;2023-02-15T04:14:47;23.45;;;10.73;;
75417;SDS011;63997;52.112;5.420;2023-02-15T04:17:32;20.25;;;10.98;;
75417;SDS011;63997;52.112;5.420;2023-02-15T04:19:58;26.83;;;12.17;;
75417;SDS011;63997;52.112;5.420;2023-02-15T04:22:43;25.52;;;12.63;;
75417;SDS011;63997;52.112;5.420;2023-02-15T04:25:28;19.17;;;9.73;;
75417;SDS011;63997;52.112;5.420;2023-02-15T04:27:54;26.02;;;11.90;;
75417;SDS011;63997;52.112;5.420;2023-02-15T04:30:22;23.92;;;12.40;;
75417;SDS011;63997;52.112;5.420;2023-02-15T04:32:50;21.77;;;11.30;;
75417;SDS011;63997;52.112;5.420;2023-02-15T04:35:17;22.27;;;10.98;;
75417;SDS011;63997;52.112;5.420;2023-02-15T04:37:44;19.50;;;10.15;;
75417;SDS011;63997;52.112;5.420;2023-02-15T04:40:11;21.42;;;11.07;;
75417;SDS011;63997;52.112;5.420;2023-02-15T04:42:39;21.70;;;11.85;;
75417;SDS011;63997;52.112;5.420;2023-02-15T04:45:06;21.23;;;9.13;;
75417;SDS011;63997;52.112;5.420;2023-02-15T04:47:33;23.30;;;11.18;;
75417;SDS011;63997;52.112;5.420;2023-02-15T04:49:59;21.52;;;10.23;;
75417;SDS011;63997;52.112;5.420;2023-02-15T04:52:26;22.45;;;10.38;;
75417;SDS011;63997;52.112;5.420;2023-02-15T04:54:52;19.83;;;10.93;;
75417;SDS011;63997;52.112;5.420;2023-02-15T04:57:18;21.53;;;10.87;;
75417;SDS011;63997;52.112;5.420;2023-02-15T04:59:45;22.58;;;11.02;;
75417;SDS011;63997;52.112;5.420;2023-02-15T05:02:11;23.58;;;10.75;;
75417;SDS011;63997;52.112;5.420;2023-02-15T05:04:38;22.58;;;12.13;;
75417;SDS011;63997;52.112;5.420;2023-02-15T05:07:04;21.35;;;11.13;;
75417;SDS011;63997;52.112;5.420;2023-02-15T05:09:30;17.67;;;10.07;;
75417;SDS011;63997;52.112;5.420;2023-02-15T05:11:57;19.90;;;9.93;;
75417;SDS011;63997;52.112;5.420;2023-02-15T05:14:23;24.98;;;11.57;;
75417;SDS011;63997;52.112;5.420;2023-02-15T05:16:50;22.80;;;10.32;;
75417;SDS011;63997;52.112;5.420;2023-02-15T05:19:16;24.27;;;10.75;;
75417;SDS011;63997;52.112;5.420;2023-02-15T05:21:42;22.90;;;11.43;;
75417;SDS011;63997;52.112;5.420;2023-02-15T05:24:09;33.47;;;12.70;;
75417;SDS011;63997;52.112;5.420;2023-02-15T05:26:54;26.45;;;12.23;;
75417;SDS011;63997;52.112;5.420;2023-02-15T05:29:39;24.13;;;11.70;;
75417;SDS011;63997;52.112;5.420;2023-02-15T05:32:05;20.80;;;11.35;;
75417;SDS011;63997;52.112;5.420;2023-02-15T05:34:32;22.87;;;10.93;;
75417;SDS011;63997;52.112;5.420;2023-02-15T05:36:58;23.30;;;11.48;;
75417;SDS011;63997;52.112;5.420;2023-02-15T05:39:25;23.52;;;12.43;;
75417;SDS011;63997;52.112;5.420;2023-02-15T05:41:51;21.70;;;11.20;;
75417;SDS011;63997;52.112;5.420;2023-02-15T05:44:17;22.15;;;11.57;;
75417;SDS011;63997;52.112;5.420;2023-02-15T05:46:44;21.67;;;11.43;;
75417;SDS011;63997;52.112;5.420;2023-02-15T05:49:10;22.13;;;12.27;;
75417;SDS011;63997;52.112;5.420;2023-02-15T05:51:37;25.70;;;13.35;;
75417;SDS011;63997;52.112;5.420;2023-02-15T05:54:03;27.15;;;12.15;;
75417;SDS011;63997;52.112;5.420;2023-02-15T05:56:29;26.52;;;12.68;;
75417;SDS011;63997;52.112;5.420;2023-02-15T05:58:56;22.97;;;10.03;;
75417;SDS011;63997;52.112;5.420;2023-02-15T06:01:22;23.27;;;11.35;;
75417;SDS011;63997;52.112;5.420;2023-02-15T06:03:49;25.45;;;12.20;;
75417;SDS011;63997;52.112;5.420;2023-02-15T06:06:16;22.27;;;11.35;;
75417;SDS011;63997;52.112;5.420;2023-02-15T06:08:43;24.63;;;11.82;;
75417;SDS011;63997;52.112;5.420;2023-02-15T06:11:09;26.57;;;11.70;;
75417;SDS011;63997;52.112;5.420;2023-02-15T06:13:37;23.80;;;10.32;;
75417;SDS011;63997;52.112;5.420;2023-02-15T06:16:04;17.63;;;10.57;;
75417;SDS011;63997;52.112;5.420;2023-02-15T06:18:32;20.58;;;10.05;;
75417;SDS011;63997;52.112;5.420;2023-02-15T06:20:58;22.67;;;11.07;;
75417;SDS011;63997;52.112;5.420;2023-02-15T06:23:24;21.17;;;11.67;;
75417;SDS011;63997;52.112;5.420;2023-02-15T06:25:51;23.40;;;11.70;;
75417;SDS011;63997;52.112;5.420;2023-02-15T06:28:17;22.92;;;11.45;;
75417;SDS011;63997;52.112;5.420;2023-02-15T06:30:43;22.30;;;11.85;;
75417;SDS011;63997;52.112;5.420;2023-02-15T06:33:10;23.88;;;11.65;;
75417;SDS011;63997;52.112;5.420;2023-02-15T06:35:36;26.13;;;12.83;;
75417;SDS011;63997;52.112;5.420;2023-02-15T06:38:03;23.23;;;10.75;;
75417;SDS011;63997;52.112;5.420;2023-02-15T06:40:29;23.23;;;10.57;;
75417;SDS011;63997;52.112;5.420;2023-02-15T06:42:55;24.17;;;11.63;;
75417;SDS011;63997;52.112;5.420;2023-02-15T06:45:22;24.83;;;11.20;;
75417;SDS011;63997;52.112;5.420;2023-02-15T06:47:48;21.67;;;11.03;;
75417;SDS011;63997;52.112;5.420;2023-02-15T06:50:14;25.20;;;10.90;;
75417;SDS011;63997;52.112;5.420;2023-02-15T06:52:41;19.88;;;10.52;;
75417;SDS011;63997;52.112;5.420;2023-02-15T06:55:07;22.45;;;9.65;;
75417;SDS011;63997;52.112;5.420;2023-02-15T06:57:34;24.52;;;11.65;;
75417;SDS011;63997;52.112;5.420;2023-02-15T07:00:00;25.30;;;11.97;;
75417;SDS011;63997;52.112;5.420;2023-02-15T07:02:27;22.13;;;11.65;;
75417;SDS011;63997;52.112;5.420;2023-02-15T07:04:54;23.92;;;11.93;;
75417;SDS011;63997;52.112;5.420;2023-02-15T07:07:20;26.33;;;12.48;;
75417;SDS011;63997;52.112;5.420;2023-02-15T07:09:48;27.90;;;13.05;;
75417;SDS011;63997;52.112;5.420;2023-02-15T07:12:14;27.87;;;12.90;;
75417;SDS011;63997;52.112;5.420;2023-02-15T07:14:59;29.55;;;12.18;;
75417;SDS011;63997;52.112;5.420;2023-02-15T07:17:26;24.23;;;12.82;;
75417;SDS011;63997;52.112;5.420;2023-02-15T07:20:06;24.38;;;12.65;;
75417;SDS011;63997;52.112;5.420;2023-02-15T07:22:44;20.20;;;11.35;;
75417;SDS011;63997;52.112;5.420;2023-02-15T07:25:10;23.50;;;11.93;;
75417;SDS011;63997;52.112;5.420;2023-02-15T07:27:38;22.40;;;11.57;;
75417;SDS011;63997;52.112;5.420;2023-02-15T07:30:05;21.15;;;11.43;;
75417;SDS011;63997;52.112;5.420;2023-02-15T07:32:35;24.35;;;12.80;;
75417;SDS011;63997;52.112;5.420;2023-02-15T07:35:01;27.88;;;12.50;;
75417;SDS011;63997;52.112;5.420;2023-02-15T07:37:28;23.50;;;11.73;;
75417;SDS011;63997;52.112;5.420;2023-02-15T07:39:54;21.13;;;11.88;;
75417;SDS011;63997;52.112;5.420;2023-02-15T07:42:21;22.83;;;12.25;;
75417;SDS011;63997;52.112;5.420;2023-02-15T07:44:48;23.55;;;11.50;;
75417;SDS011;63997;52.112;5.420;2023-02-15T07:47:14;21.02;;;12.10;;
75417;SDS011;63997;52.112;5.420;2023-02-15T07:49:41;21.90;;;11.77;;
75417;SDS011;63997;52.112;5.420;2023-02-15T07:52:07;23.58;;;11.45;;
75417;SDS011;63997;52.112;5.420;2023-02-15T07:54:34;23.38;;;11.15;;
75417;SDS011;63997;52.112;5.420;2023-02-15T07:57:00;22.65;;;11.70;;
75417;SDS011;63997;52.112;5.420;2023-02-15T07:59:27;26.08;;;12.23;;
75417;SDS011;63997;52.112;5.420;2023-02-15T08:01:54;22.47;;;11.37;;
75417;SDS011;63997;52.112;5.420;2023-02-15T08:04:22;24.10;;;11.48;;
75417;SDS011;63997;52.112;5.420;2023-02-15T08:06:51;27.63;;;12.50;;
75417;SDS011;63997;52.112;5.420;2023-02-15T08:09:19;23.60;;;11.88;;
75417;SDS011;63997;52.112;5.420;2023-02-15T08:11:46;25.55;;;12.52;;
75417;SDS011;63997;52.112;5.420;2023-02-15T08:14:13;27.37;;;13.70;;
75417;SDS011;63997;52.112;5.420;2023-02-15T08:16:49;30.95;;;13.73;;
75417;SDS011;63997;52.112;5.420;2023-02-15T08:19:18;22.60;;;11.75;;
75417;SDS011;63997;52.112;5.420;2023-02-15T08:21:47;26.48;;;12.48;;
75417;SDS011;63997;52.112;5.420;2023-02-15T08:24:24;25.58;;;11.95;;
75417;SDS011;63997;52.112;5.420;2023-02-15T08:26:52;26.10;;;12.80;;
75417;SDS011;63997;52.112;5.420;2023-02-15T08:29:19;31.20;;;13.45;;
75417;SDS011;63997;52.112;5.420;2023-02-15T08:31:48;31.52;;;13.73;;
75417;SDS011;63997;52.112;5.420;2023-02-15T08:34:17;33.22;;;16.33;;
75417;SDS011;63997;52.112;5.420;2023-02-15T08:36:44;43.28;;;20.85;;
75417;SDS011;63997;52.112;5.420;2023-02-15T08:39:14;37.63;;;19.23;;
75417;SDS011;63997;52.112;5.420;2023-02-15T08:41:42;37.97;;;17.50;;
75417;SDS011;63997;52.112;5.420;2023-02-15T08:44:10;32.55;;;16.13;;
75417;SDS011;63997;52.112;5.420;2023-02-15T08:46:38;37.85;;;16.92;;
75417;SDS011;63997;52.112;5.420;2023-02-15T08:49:06;32.20;;;15.98;;
75417;SDS011;63997;52.112;5.420;2023-02-15T08:51:34;28.80;;;15.53;;
75417;SDS011;63997;52.112;5.420;2023-02-15T08:54:03;32.30;;;17.00;;
75417;SDS011;63997;52.112;5.420;2023-02-15T08:56:32;37.25;;;16.98;;
75417;SDS011;63997;52.112;5.420;2023-02-15T08:59:00;38.65;;;16.45;;
75417;SDS011;63997;52.112;5.420;2023-02-15T09:01:28;45.58;;;19.17;;
75417;SDS011;63997;52.112;5.420;2023-02-15T09:03:57;45.47;;;19.53;;
75417;SDS011;63997;52.112;5.420;2023-02-15T09:06:26;46.70;;;18.42;;
75417;SDS011;63997;52.112;5.420;2023-02-15T09:08:54;32.78;;;16.27;;
75417;SDS011;63997;52.112;5.420;2023-02-15T09:11:22;29.13;;;15.70;;
75417;SDS011;63997;52.112;5.420;2023-02-15T09:16:21;34.40;;;17.77;;
75417;SDS011;63997;52.112;5.420;2023-02-15T09:18:49;29.02;;;16.38;;
75417;SDS011;63997;52.112;5.420;2023-02-15T09:21:18;32.78;;;17.05;;
75417;SDS011;63997;52.112;5.420;2023-02-15T09:23:47;28.33;;;15.68;;
75417;SDS011;63997;52.112;5.420;2023-02-15T09:26:19;28.08;;;15.88;;
75417;SDS011;63997;52.112;5.420;2023-02-15T09:28:46;33.87;;;17.00;;
75417;SDS011;63997;52.112;5.420;2023-02-15T09:31:16;28.90;;;16.85;;
75417;SDS011;63997;52.112;5.420;2023-02-15T09:33:45;33.95;;;18.55;;
75417;SDS011;63997;52.112;5.420;2023-02-15T09:36:17;28.98;;;16.63;;
75417;SDS011;63997;52.112;5.420;2023-02-15T09:38:44;32.67;;;17.40;;
75417;SDS011;63997;52.112;5.420;2023-02-15T09:46:33;31.13;;;17.35;;
75417;SDS011;63997;52.112;5.420;2023-02-15T09:49:23;31.75;;;17.42;;
75417;SDS011;63997;52.112;5.420;2023-02-15T09:52:14;31.08;;;16.20;;
75417;SDS011;63997;52.112;5.420;2023-02-15T10:11:53;35.15;;;17.92;;
75417;SDS011;63997;52.112;5.420;2023-02-15T10:14:37;37.67;;;17.02;;
75417;SDS011;63997;52.112;5.420;2023-02-15T10:17:33;36.15;;;17.63;;
75417;SDS011;63997;52.112;5.420;2023-02-15T10:28:42;37.70;;;18.95;;
75417;SDS011;63997;52.112;5.420;2023-02-15T10:31:26;34.83;;;17.25;;
75417;SDS011;63997;52.112;5.420;2023-02-15T10:34:20;36.05;;;17.73;;
75417;SDS011;63997;52.112;5.420;2023-02-15T10:50:55;41.03;;;18.50;;
75417;SDS011;63997;52.112;5.420;2023-02-15T11:04:45;39.60;;;18.27;;
75417;SDS011;63997;52.112;5.420;2023-02-15T11:07:32;37.45;;;17.50;;
75417;SDS011;63997;52.112;5.420;2023-02-15T11:12:43;35.97;;;16.95;;
75417;SDS011;63997;52.112;5.420;2023-02-15T11:15:18;35.00;;;17.98;;
75417;SDS011;63997;52.112;5.420;2023-02-15T11:21:17;34.35;;;18.20;;
75417;SDS011;63997;52.112;5.420;2023-02-15T11:23:50;35.13;;;18.08;;
75417;SDS011;63997;52.112;5.420;2023-02-15T11:29:20;35.15;;;18.70;;
75417;SDS011;63997;52.112;5.420;2023-02-15T11:31:50;35.13;;;18.37;;
75417;SDS011;63997;52.112;5.420;2023-02-15T11:34:29;39.72;;;18.63;;
75417;SDS011;63997;52.112;5.420;2023-02-15T11:37:01;39.17;;;18.15;;
75417;SDS011;63997;52.112;5.420;2023-02-15T11:39:37;35.88;;;18.20;;
75417;SDS011;63997;52.112;5.420;2023-02-15T11:42:04;40.72;;;19.70;;
75417;SDS011;63997;52.112;5.420;2023-02-15T11:44:39;36.83;;;19.13;;
75417;SDS011;63997;52.112;5.420;2023-02-15T11:47:24;38.35;;;19.13;;
75417;SDS011;63997;52.112;5.420;2023-02-15T11:49:50;37.38;;;19.48;;
75417;SDS011;63997;52.112;5.420;2023-02-15T11:52:17;37.15;;;19.35;;
75417;SDS011;63997;52.112;5.420;2023-02-15T11:54:48;35.90;;;19.17;;
75417;SDS011;63997;52.112;5.420;2023-02-15T11:57:33;43.23;;;19.73;;
75417;SDS011;63997;52.112;5.420;2023-02-15T12:02:46;37.70;;;19.10;;
75417;SDS011;63997;52.112;5.420;2023-02-15T12:05:17;37.15;;;19.02;;
75417;SDS011;63997;52.112;5.420;2023-02-15T12:07:53;36.15;;;19.15;;
75417;SDS011;63997;52.112;5.420;2023-02-15T12:10:25;36.77;;;19.00;;
75417;SDS011;63997;52.112;5.420;2023-02-15T12:13:15;35.75;;;18.40;;
75417;SDS011;63997;52.112;5.420;2023-02-15T12:15:44;36.35;;;18.95;;
75417;SDS011;63997;52.112;5.420;2023-02-15T12:20:50;38.72;;;19.13;;
75417;SDS011;63997;52.112;5.420;2023-02-15T12:23:16;36.70;;;19.37;;
75417;SDS011;63997;52.112;5.420;2023-02-15T12:25:54;35.55;;;19.77;;
75417;SDS011;63997;52.112;5.420;2023-02-15T12:28:28;39.42;;;20.05;;
75417;SDS011;63997;52.112;5.420;2023-02-15T12:30:58;36.38;;;18.42;;
75417;SDS011;63997;52.112;5.420;2023-02-15T12:33:34;35.90;;;19.20;;
75417;SDS011;63997;52.112;5.420;2023-02-15T12:36:12;36.50;;;19.37;;
75417;SDS011;63997;52.112;5.420;2023-02-15T12:38:49;39.03;;;19.80;;
75417;SDS011;63997;52.112;5.420;2023-02-15T12:41:29;38.40;;;19.00;;
75417;SDS011;63997;52.112;5.420;2023-02-15T12:44:17;36.03;;;18.83;;
75417;SDS011;63997;52.112;5.420;2023-02-15T12:46:56;38.38;;;19.25;;
75417;SDS011;63997;52.112;5.420;2023-02-15T12:49:23;40.90;;;19.73;;
75417;SDS011;63997;52.112;5.420;2023-02-15T12:51:51;37.30;;;19.38;;
75417;SDS011;63997;52.112;5.420;2023-02-15T12:56:49;35.45;;;19.23;;
75417;SDS011;63997;52.112;5.420;2023-02-15T12:59:15;40.88;;;19.65;;
75417;SDS011;63997;52.112;5.420;2023-02-15T13:01:48;37.03;;;19.80;;
75417;SDS011;63997;52.112;5.420;2023-02-15T13:06:52;35.47;;;18.83;;
75417;SDS011;63997;52.112;5.420;2023-02-15T13:12:10;38.30;;;19.95;;
75417;SDS011;63997;52.112;5.420;2023-02-15T13:14:45;39.17;;;19.40;;
75417;SDS011;63997;52.112;5.420;2023-02-15T13:17:13;36.10;;;20.13;;
75417;SDS011;63997;52.112;5.420;2023-02-15T13:19:46;38.05;;;19.75;;
75417;SDS011;63997;52.112;5.420;2023-02-15T13:22:17;39.47;;;20.70;;
75417;SDS011;63997;52.112;5.420;2023-02-15T13:24:47;38.80;;;20.95;;
75417;SDS011;63997;52.112;5.420;2023-02-15T13:27:19;40.13;;;19.97;;
75417;SDS011;63997;52.112;5.420;2023-02-15T13:29:52;37.55;;;20.08;;
75417;SDS011;63997;52.112;5.420;2023-02-15T13:34:51;36.95;;;19.58;;
75417;SDS011;63997;52.112;5.420;2023-02-15T13:40:44;35.93;;;19.63;;
75417;SDS011;63997;52.112;5.420;2023-02-15T13:46:08;39.55;;;20.58;;
75417;SDS011;63997;52.112;5.420;2023-02-15T13:51:35;37.40;;;19.55;;
75417;SDS011;63997;52.112;5.420;2023-02-15T13:54:28;45.23;;;19.87;;
75417;SDS011;63997;52.112;5.420;2023-02-15T13:57:11;37.30;;;20.17;;
75417;SDS011;63997;52.112;5.420;2023-02-15T14:02:38;37.65;;;20.17;;
75417;SDS011;63997;52.112;5.420;2023-02-15T14:13:47;35.25;;;19.80;;
75417;SDS011;63997;52.112;5.420;2023-02-15T14:19:45;38.42;;;20.95;;
75417;SDS011;63997;52.112;5.420;2023-02-15T14:22:18;45.57;;;20.83;;
75417;SDS011;63997;52.112;5.420;2023-02-15T14:25:26;41.72;;;20.98;;
75417;SDS011;63997;52.112;5.420;2023-02-15T14:30:44;39.67;;;20.83;;
75417;SDS011;63997;52.112;5.420;2023-02-15T14:35:39;41.17;;;22.10;;
75417;SDS011;63997;52.112;5.420;2023-02-15T14:38:30;36.58;;;21.23;;
75417;SDS011;63997;52.112;5.420;2023-02-15T14:46:54;41.55;;;21.02;;
75417;SDS011;63997;52.112;5.420;2023-02-15T14:49:31;44.57;;;20.93;;
75417;SDS011;63997;52.112;5.420;2023-02-15T14:52:00;36.05;;;19.85;;
75417;SDS011;63997;52.112;5.420;2023-02-15T14:59:37;39.85;;;21.50;;
75417;SDS011;63997;52.112;5.420;2023-02-15T15:02:10;44.07;;;21.77;;
75417;SDS011;63997;52.112;5.420;2023-02-15T15:04:43;42.50;;;20.13;;
75417;SDS011;63997;52.112;5.420;2023-02-15T15:07:24;38.05;;;20.00;;
75417;SDS011;63997;52.112;5.420;2023-02-15T15:10:38;44.20;;;20.58;;
75417;SDS011;63997;52.112;5.420;2023-02-15T15:12:43;40.05;;;19.58;;
75417;SDS011;63997;52.112;5.420;2023-02-15T15:15:12;41.07;;;21.27;;
75417;SDS011;63997;52.112;5.420;2023-02-15T15:17:59;36.78;;;19.52;;
75417;SDS011;63997;52.112;5.420;2023-02-15T15:20:49;44.03;;;21.05;;
75417;SDS011;63997;52.112;5.420;2023-02-15T15:25:47;40.78;;;20.73;;
75417;SDS011;63997;52.112;5.420;2023-02-15T15:28:55;36.53;;;19.87;;
75417;SDS011;63997;52.112;5.420;2023-02-15T15:31:18;38.03;;;19.58;;
75417;SDS011;63997;52.112;5.420;2023-02-15T15:48:42;39.83;;;19.10;;
75417;SDS011;63997;52.112;5.420;2023-02-15T15:51:18;39.22;;;18.98;;
75417;SDS011;63997;52.112;5.420;2023-02-15T15:53:47;42.97;;;19.50;;
75417;SDS011;63997;52.112;5.420;2023-02-15T15:56:20;38.60;;;19.37;;
75417;SDS011;63997;52.112;5.420;2023-02-15T15:58:52;41.20;;;20.63;;
75417;SDS011;63997;52.112;5.420;2023-02-15T16:01:24;38.72;;;20.67;;
75417;SDS011;63997;52.112;5.420;2023-02-15T16:03:58;40.15;;;20.10;;
75417;SDS011;63997;52.112;5.420;2023-02-15T16:06:37;37.97;;;19.40;;
75417;SDS011;63997;52.112;5.420;2023-02-15T16:09:09;36.47;;;19.70;;
75417;SDS011;63997;52.112;5.420;2023-02-15T16:11:44;39.38;;;19.70;;
75417;SDS011;63997;52.112;5.420;2023-02-15T16:14:17;39.90;;;19.92;;
75417;SDS011;63997;52.112;5.420;2023-02-15T16:17:08;38.33;;;19.42;;
75417;SDS011;63997;52.112;5.420;2023-02-15T16:19:44;40.60;;;19.02;;
75417;SDS011;63997;52.112;5.420;2023-02-15T16:22:13;39.97;;;20.43;;
75417;SDS011;63997;52.112;5.420;2023-02-15T16:27:42;39.25;;;20.20;;
75417;SDS011;63997;52.112;5.420;2023-02-15T16:30:44;40.10;;;19.10;;
75417;SDS011;63997;52.112;5.420;2023-02-15T16:33:13;35.90;;;18.55;;
75417;SDS011;63997;52.112;5.420;2023-02-15T16:35:53;43.53;;;20.70;;
75417;SDS011;63997;52.112;5.420;2023-02-15T16:41:21;40.78;;;20.38;;
75417;SDS011;63997;52.112;5.420;2023-02-15T16:43:51;40.83;;;19.05;;
75417;SDS011;63997;52.112;5.420;2023-02-15T16:49:14;39.33;;;19.40;;
75417;SDS011;63997;52.112;5.420;2023-02-15T16:51:43;37.40;;;19.02;;
75417;SDS011;63997;52.112;5.420;2023-02-15T16:54:17;42.03;;;20.10;;
75417;SDS011;63997;52.112;5.420;2023-02-15T16:56:46;42.95;;;20.05;;
75417;SDS011;63997;52.112;5.420;2023-02-15T17:01:55;43.77;;;20.27;;
75417;SDS011;63997;52.112;5.420;2023-02-15T17:06:57;44.28;;;21.98;;
75417;SDS011;63997;52.112;5.420;2023-02-15T17:09:31;46.78;;;20.33;;
75417;SDS011;63997;52.112;5.420;2023-02-15T17:11:59;47.85;;;21.30;;
75417;SDS011;63997;52.112;5.420;2023-02-15T17:14:28;41.37;;;21.30;;
75417;SDS011;63997;52.112;5.420;2023-02-15T17:17:06;41.03;;;20.40;;
75417;SDS011;63997;52.112;5.420;2023-02-15T17:19:48;40.70;;;21.17;;
75417;SDS011;63997;52.112;5.420;2023-02-15T17:22:24;38.00;;;19.17;;
75417;SDS011;63997;52.112;5.420;2023-02-15T17:24:59;47.53;;;21.13;;
75417;SDS011;63997;52.112;5.420;2023-02-15T17:27:28;44.53;;;20.83;;
75417;SDS011;63997;52.112;5.420;2023-02-15T17:29:57;41.35;;;19.25;;
75417;SDS011;63997;52.112;5.420;2023-02-15T17:32:27;39.58;;;19.23;;
75417;SDS011;63997;52.112;5.420;2023-02-15T17:37:32;45.97;;;21.02;;
75417;SDS011;63997;52.112;5.420;2023-02-15T17:40:20;38.63;;;20.70;;
75417;SDS011;63997;52.112;5.420;2023-02-15T17:42:48;40.97;;;20.75;;
75417;SDS011;63997;52.112;5.420;2023-02-15T17:45:15;42.30;;;20.92;;
75417;SDS011;63997;52.112;5.420;2023-02-15T17:47:42;43.35;;;21.08;;
75417;SDS011;63997;52.112;5.420;2023-02-15T17:50:15;44.60;;;21.38;;
75417;SDS011;63997;52.112;5.420;2023-02-15T17:52:46;42.60;;;19.90;;
75417;SDS011;63997;52.112;5.420;2023-02-15T17:55:13;45.60;;;20.90;;
75417;SDS011;63997;52.112;5.420;2023-02-15T17:58:01;48.22;;;21.60;;
75417;SDS011;63997;52.112;5.420;2023-02-15T18:00:30;46.30;;;21.63;;
75417;SDS011;63997;52.112;5.420;2023-02-15T18:03:16;45.00;;;22.23;;